createdAt,value
2019-03-26T00:00:07.851Z,4.27
2019-03-26T00:02:35.037Z,6.70
2019-03-26T00:05:02.631Z,5.97
2019-03-26T00:07:29.827Z,5.67
2019-03-26T00:09:57.118Z,7.83
2019-03-26T00:12:24.346Z,7.10
2019-03-26T00:14:51.535Z,7.67
2019-03-26T00:17:18.814Z,8.93
2019-03-26T00:19:45.986Z,7.50
2019-03-26T00:22:13.157Z,8.40
2019-03-26T00:24:40.338Z,7.37
2019-03-26T00:27:07.987Z,6.57
2019-03-26T00:29:35.364Z,10.10
2019-03-26T00:32:02.551Z,7.40
2019-03-26T00:34:29.723Z,7.10
2019-03-26T00:36:56.894Z,7.97
2019-03-26T00:39:24.078Z,8.00
2019-03-26T00:41:51.258Z,6.90
2019-03-26T00:44:18.444Z,6.43
2019-03-26T00:46:45.637Z,10.57
2019-03-26T00:49:12.812Z,7.83
2019-03-26T00:51:40.007Z,9.40
2019-03-26T00:54:07.190Z,9.87
2019-03-26T00:56:34.397Z,7.37
2019-03-26T00:59:01.573Z,10.00
2019-03-26T01:01:28.820Z,7.93
2019-03-26T01:03:55.999Z,7.37
2019-03-26T01:06:23.178Z,5.87
2019-03-26T01:08:50.355Z,7.37
2019-03-26T01:11:17.535Z,6.67
2019-03-26T01:13:44.702Z,8.33
2019-03-26T01:16:11.882Z,7.60
2019-03-26T01:18:39.166Z,7.43
2019-03-26T01:21:09.159Z,6.30
2019-03-26T01:23:36.326Z,8.33
2019-03-26T01:26:03.486Z,7.70
2019-03-26T01:28:30.662Z,7.67
2019-03-26T01:30:59.600Z,11.53
2019-03-26T01:33:26.802Z,7.17
2019-03-26T01:35:54.038Z,9.27
2019-03-26T01:38:21.211Z,5.47
2019-03-26T01:40:48.396Z,8.23
2019-03-26T01:43:15.568Z,8.57
2019-03-26T01:45:42.750Z,6.33
2019-03-26T01:48:09.924Z,7.63
2019-03-26T01:50:37.109Z,7.60
2019-03-26T01:53:04.285Z,7.07
2019-03-26T01:55:31.942Z,11.80
2019-03-26T01:57:59.117Z,10.77
2019-03-26T02:00:26.295Z,7.17
2019-03-26T02:02:53.475Z,8.50
2019-03-26T02:05:20.635Z,8.83
2019-03-26T02:07:47.813Z,7.70
2019-03-26T02:10:14.981Z,7.57
2019-03-26T02:12:42.166Z,9.60
2019-03-26T02:15:10.970Z,9.00
2019-03-26T02:17:38.166Z,12.27
2019-03-26T02:20:06.405Z,7.03
2019-03-26T02:22:34.271Z,9.03
2019-03-26T02:25:01.515Z,10.13
2019-03-26T02:27:28.780Z,7.20
2019-03-26T02:29:55.978Z,10.13
2019-03-26T02:32:23.230Z,10.10
2019-03-26T02:34:50.452Z,13.57
2019-03-26T02:37:17.620Z,8.47
2019-03-26T02:39:44.790Z,8.17
2019-03-26T02:42:11.980Z,8.60
2019-03-26T02:44:39.178Z,8.20
2019-03-26T02:47:06.350Z,10.73
2019-03-26T02:49:33.545Z,11.43
2019-03-26T02:52:00.787Z,11.23
2019-03-26T02:54:27.959Z,13.13
2019-03-26T02:56:55.139Z,8.17
2019-03-26T02:59:22.321Z,10.17
2019-03-26T03:01:49.567Z,5.50
2019-03-26T03:04:16.871Z,11.10
2019-03-26T03:06:44.030Z,13.03
2019-03-26T03:09:11.210Z,5.77
2019-03-26T03:11:38.379Z,9.60
2019-03-26T03:14:05.583Z,6.87
2019-03-26T03:16:32.743Z,7.53
2019-03-26T03:18:59.992Z,8.80
2019-03-26T03:21:27.242Z,7.40
2019-03-26T03:23:54.407Z,6.03
2019-03-26T03:26:21.586Z,8.13
2019-03-26T03:28:48.773Z,7.97
2019-03-26T03:31:15.951Z,7.80
2019-03-26T03:33:43.142Z,5.67
2019-03-26T03:36:10.385Z,7.30
2019-03-26T03:38:41.190Z,5.67
2019-03-26T03:41:06.467Z,7.77
2019-03-26T03:43:33.635Z,8.00
2019-03-26T03:46:00.797Z,7.07
2019-03-26T03:48:27.984Z,5.10
2019-03-26T03:50:55.155Z,7.90
2019-03-26T03:53:22.509Z,4.53
2019-03-26T03:55:50.732Z,7.40
2019-03-26T03:58:18.633Z,5.83
2019-03-26T04:00:45.813Z,7.87
2019-03-26T04:03:12.989Z,4.53
2019-03-26T04:05:40.163Z,6.97
2019-03-26T04:08:07.359Z,5.37
2019-03-26T04:10:34.556Z,4.57
2019-03-26T04:13:01.737Z,5.40
2019-03-26T04:15:28.903Z,4.40
2019-03-26T04:17:56.096Z,6.30
2019-03-26T04:20:23.327Z,6.87
2019-03-26T04:22:50.527Z,5.60
2019-03-26T04:25:17.704Z,6.37
2019-03-26T04:27:44.911Z,5.50
2019-03-26T04:30:13.761Z,6.17
2019-03-26T04:32:40.954Z,5.57
2019-03-26T04:35:08.190Z,7.23
2019-03-26T04:37:35.393Z,4.87
2019-03-26T04:40:02.587Z,6.73
2019-03-26T04:42:29.758Z,6.57
2019-03-26T04:44:56.961Z,8.10
2019-03-26T04:47:24.207Z,6.23
2019-03-26T04:49:51.369Z,6.47
2019-03-26T04:52:18.546Z,7.20
2019-03-26T04:54:45.722Z,5.30
2019-03-26T04:57:12.962Z,8.37
2019-03-26T04:59:40.170Z,8.47
2019-03-26T05:02:07.350Z,11.23
2019-03-26T05:04:34.540Z,9.73
2019-03-26T05:07:01.727Z,11.50
2019-03-26T05:09:28.927Z,11.23
2019-03-26T05:11:56.113Z,12.23
2019-03-26T05:14:23.316Z,16.47
2019-03-26T05:16:50.495Z,11.80
2019-03-26T05:19:17.677Z,15.40
2019-03-26T05:21:44.849Z,12.93
2019-03-26T05:24:12.047Z,15.90
2019-03-26T05:26:39.238Z,14.23
2019-03-26T05:29:06.403Z,12.93
2019-03-26T05:31:33.619Z,14.27
2019-03-26T05:34:00.809Z,17.97
2019-03-26T05:36:29.703Z,17.70
2019-03-26T05:38:56.891Z,17.40
2019-03-26T05:41:24.096Z,16.80
2019-03-26T05:43:51.336Z,17.77
2019-03-26T05:46:18.503Z,19.33
2019-03-26T05:48:45.685Z,16.43
2019-03-26T05:51:12.919Z,20.07
2019-03-26T05:53:40.102Z,21.10
2019-03-26T05:56:07.271Z,16.90
2019-03-26T05:58:34.473Z,12.97
2019-03-26T06:01:01.720Z,14.73
2019-03-26T06:03:28.906Z,19.73
2019-03-26T06:05:56.186Z,18.67
2019-03-26T06:08:23.366Z,26.40
2019-03-26T06:10:50.546Z,18.80
2019-03-26T06:13:17.745Z,19.33
2019-03-26T06:15:44.924Z,17.40
2019-03-26T06:18:12.122Z,13.37
2019-03-26T06:20:39.325Z,21.40
2019-03-26T06:23:06.614Z,20.00
2019-03-26T06:25:33.783Z,18.00
2019-03-26T06:28:00.971Z,22.50
2019-03-26T06:30:28.247Z,23.70
2019-03-26T06:32:55.426Z,19.77
2019-03-26T06:35:22.606Z,22.13
2019-03-26T06:37:49.799Z,17.97
2019-03-26T06:40:16.996Z,21.77
2019-03-26T06:42:44.191Z,19.87
2019-03-26T06:45:11.366Z,23.87
2019-03-26T06:47:38.556Z,14.67
2019-03-26T06:50:09.585Z,20.10
2019-03-26T06:52:36.851Z,19.83
2019-03-26T06:55:05.657Z,16.13
2019-03-26T06:57:35.925Z,18.40
2019-03-26T07:00:01.766Z,16.27
2019-03-26T07:02:28.965Z,22.80
2019-03-26T07:04:56.166Z,10.97
2019-03-26T07:07:31.575Z,16.33
2019-03-26T07:09:52.285Z,13.37
2019-03-26T07:12:19.465Z,13.40
2019-03-26T07:14:46.626Z,13.80
2019-03-26T07:17:13.821Z,13.33
2019-03-26T07:19:40.999Z,16.30
2019-03-26T07:22:08.209Z,16.70
2019-03-26T07:24:35.439Z,14.47
2019-03-26T07:27:02.605Z,18.53
2019-03-26T07:29:29.785Z,15.73
2019-03-26T07:31:56.970Z,13.57
2019-03-26T07:34:24.159Z,17.03
2019-03-26T07:36:51.333Z,19.73
2019-03-26T07:39:18.537Z,17.60
2019-03-26T07:41:45.795Z,12.47
2019-03-26T07:44:12.967Z,6.40
2019-03-26T07:46:40.150Z,13.87
2019-03-26T07:49:07.327Z,15.77
2019-03-26T07:51:34.519Z,19.03
2019-03-26T07:54:01.692Z,11.20
2019-03-26T07:56:28.863Z,14.00
2019-03-26T07:58:56.062Z,9.30
2019-03-26T08:01:23.241Z,11.10
2019-03-26T08:03:50.426Z,10.27
2019-03-26T08:06:17.609Z,12.17
2019-03-26T08:08:44.818Z,9.57
2019-03-26T08:11:12.061Z,17.60
2019-03-26T08:13:41.007Z,14.03
2019-03-26T08:16:08.175Z,12.97
2019-03-26T08:18:35.418Z,23.87
2019-03-26T08:21:02.682Z,15.00
2019-03-26T08:23:29.851Z,10.77
2019-03-26T08:25:57.050Z,18.40
2019-03-26T08:28:24.268Z,11.80
2019-03-26T08:30:51.449Z,17.13
2019-03-26T08:33:18.641Z,14.30
2019-03-26T08:35:45.810Z,8.37
2019-03-26T08:38:13.551Z,14.70
2019-03-26T08:40:41.551Z,8.27
2019-03-26T08:43:08.743Z,17.03
2019-03-26T08:45:36.393Z,10.50
2019-03-26T08:48:04.296Z,11.67
2019-03-26T08:50:31.548Z,13.10
2019-03-26T08:52:58.740Z,13.63
2019-03-26T08:55:25.914Z,6.80
2019-03-26T08:57:53.133Z,11.93
2019-03-26T09:00:20.391Z,8.20
2019-03-26T09:02:47.582Z,6.53
2019-03-26T09:05:14.842Z,13.77
2019-03-26T09:07:42.017Z,6.13
2019-03-26T09:10:11.896Z,8.30
2019-03-26T09:12:39.649Z,17.17
2019-03-26T09:15:14.415Z,8.73
2019-03-26T09:17:44.235Z,11.57
2019-03-26T09:20:11.034Z,8.87
2019-03-26T09:22:38.297Z,11.80
2019-03-26T09:25:05.920Z,6.93
2019-03-26T09:27:36.427Z,9.90
2019-03-26T09:30:05.050Z,6.80
2019-03-26T09:32:34.056Z,7.57
2019-03-26T09:35:01.261Z,13.03
2019-03-26T09:37:28.430Z,10.07
2019-03-26T09:39:55.614Z,9.13
2019-03-26T09:42:25.726Z,8.13
2019-03-26T09:44:56.719Z,8.87
2019-03-26T09:47:24.130Z,6.40
2019-03-26T09:49:53.034Z,9.63
2019-03-26T09:52:20.276Z,6.33
2019-03-26T09:54:50.288Z,10.70
2019-03-26T09:57:17.537Z,16.00
2019-03-26T09:59:44.706Z,7.77
2019-03-26T10:02:16.010Z,4.87
2019-03-26T10:04:43.312Z,10.03
2019-03-26T10:07:20.922Z,10.17
2019-03-26T10:09:39.470Z,11.70
2019-03-26T10:12:11.147Z,8.73
2019-03-26T10:14:38.345Z,15.83
2019-03-26T10:17:05.578Z,12.03
2019-03-26T10:19:36.479Z,9.53
2019-03-26T10:22:03.737Z,8.87
2019-03-26T10:24:30.919Z,10.50
2019-03-26T10:26:58.102Z,19.53
2019-03-26T10:29:30.497Z,8.90
2019-03-26T10:31:54.167Z,7.63
2019-03-26T10:34:21.421Z,16.20
2019-03-26T10:36:48.608Z,7.50
2019-03-26T10:39:17.478Z,12.03
2019-03-26T10:41:44.646Z,7.60
2019-03-26T10:44:11.799Z,6.10
2019-03-26T10:46:38.979Z,15.80
2019-03-26T10:49:06.151Z,8.43
2019-03-26T10:51:33.376Z,15.97
2019-03-26T10:54:00.550Z,10.40
2019-03-26T10:56:27.726Z,9.50
2019-03-26T10:58:54.931Z,12.77
2019-03-26T11:01:22.112Z,6.43
2019-03-26T11:03:49.298Z,6.00
2019-03-26T11:06:16.480Z,8.73
2019-03-26T11:08:45.174Z,8.67
2019-03-26T11:11:12.574Z,8.30
2019-03-26T11:13:39.763Z,12.97
2019-03-26T11:16:06.958Z,8.37
2019-03-26T11:18:34.118Z,9.07
2019-03-26T11:21:03.302Z,17.97
2019-03-26T11:23:30.231Z,8.07
2019-03-26T11:25:57.430Z,6.67
2019-03-26T11:28:24.620Z,11.63
2019-03-26T11:30:51.814Z,13.80
2019-03-26T11:33:18.995Z,6.33
2019-03-26T11:35:46.162Z,6.90
2019-03-26T11:38:13.418Z,8.47
2019-03-26T11:40:40.618Z,10.07
2019-03-26T11:43:07.878Z,9.73
2019-03-26T11:45:35.152Z,13.07
2019-03-26T11:48:02.313Z,6.30
2019-03-26T11:50:29.489Z,6.07
2019-03-26T11:52:56.688Z,7.27
2019-03-26T11:55:23.883Z,7.87
2019-03-26T11:57:51.051Z,5.63
2019-03-26T12:00:29.940Z,8.83
2019-03-26T12:02:57.107Z,3.37
2019-03-26T12:05:24.282Z,5.03
2019-03-26T12:07:51.494Z,4.63
2019-03-26T12:10:22.061Z,4.17
2019-03-26T12:12:49.234Z,6.83
2019-03-26T12:15:16.441Z,5.30
2019-03-26T12:17:43.600Z,5.17
2019-03-26T12:20:10.780Z,6.33
2019-03-26T12:22:37.942Z,6.73
2019-03-26T12:25:05.390Z,8.23
2019-03-26T12:27:32.572Z,7.60
2019-03-26T12:29:59.778Z,7.70
2019-03-26T12:32:26.949Z,3.97
2019-03-26T12:34:54.110Z,7.93
2019-03-26T12:37:21.298Z,5.13
2019-03-26T12:39:58.844Z,3.73
2019-03-26T12:42:17.794Z,7.40
2019-03-26T12:44:44.982Z,5.83
2019-03-26T12:47:12.239Z,7.57
2019-03-26T12:49:39.413Z,6.07
2019-03-26T12:52:06.591Z,2.23
2019-03-26T12:54:33.772Z,4.70
2019-03-26T12:57:01.027Z,6.20
2019-03-26T12:59:28.215Z,5.83
2019-03-26T13:01:55.409Z,6.97
2019-03-26T13:04:22.742Z,4.47
2019-03-26T13:06:49.989Z,6.70
2019-03-26T13:09:17.171Z,5.77
2019-03-26T13:11:44.343Z,4.43
2019-03-26T13:14:11.558Z,5.57
2019-03-26T13:16:38.932Z,3.47
2019-03-26T13:19:06.147Z,6.87
2019-03-26T13:21:33.323Z,2.63
2019-03-26T13:24:00.528Z,3.43
2019-03-26T13:26:27.707Z,2.73
2019-03-26T13:28:54.895Z,2.80
2019-03-26T13:31:22.134Z,6.57
2019-03-26T13:33:49.312Z,2.80
2019-03-26T13:36:16.507Z,4.40
2019-03-26T13:38:43.681Z,7.23
2019-03-26T13:41:10.858Z,8.93
2019-03-26T13:43:38.053Z,4.03
2019-03-26T13:46:05.231Z,2.20
2019-03-26T13:48:32.389Z,3.83
2019-03-26T13:50:59.598Z,5.27
2019-03-26T13:53:26.781Z,5.50
2019-03-26T13:55:53.971Z,2.20
2019-03-26T13:58:21.163Z,4.67
2019-03-26T14:00:48.331Z,4.33
2019-03-26T14:03:15.562Z,3.17
2019-03-26T14:05:42.784Z,6.57
2019-03-26T14:08:10.056Z,3.03
2019-03-26T14:10:41.036Z,2.80
2019-03-26T14:13:06.213Z,3.33
2019-03-26T14:15:33.403Z,4.70
2019-03-26T14:18:00.580Z,5.47
2019-03-26T14:20:27.844Z,7.33
2019-03-26T14:22:55.009Z,6.07
2019-03-26T14:25:22.217Z,4.43
2019-03-26T14:27:49.469Z,2.83
2019-03-26T14:30:18.319Z,7.33
2019-03-26T14:32:45.486Z,5.93
2019-03-26T14:35:12.666Z,3.53
2019-03-26T14:37:50.646Z,5.27
2019-03-26T14:40:08.721Z,4.13
2019-03-26T14:42:35.899Z,4.47
2019-03-26T14:45:04.134Z,4.63
2019-03-26T14:47:31.323Z,2.70
2019-03-26T14:49:58.498Z,4.23
2019-03-26T14:52:25.674Z,3.03
2019-03-26T14:54:52.890Z,4.70
2019-03-26T14:57:20.061Z,6.53
2019-03-26T14:59:47.243Z,5.13
2019-03-26T15:02:14.445Z,8.30
2019-03-26T15:04:41.858Z,6.87
2019-03-26T15:07:09.050Z,5.50
2019-03-26T15:09:36.223Z,9.17
2019-03-26T15:12:03.414Z,5.23
2019-03-26T15:14:30.587Z,4.73
2019-03-26T15:16:57.784Z,7.63
2019-03-26T15:19:24.958Z,9.27
2019-03-26T15:21:52.144Z,7.43
2019-03-26T15:24:19.323Z,7.23
2019-03-26T15:26:46.506Z,4.93
2019-03-26T15:29:13.689Z,5.57
2019-03-26T15:31:40.855Z,6.47
2019-03-26T15:34:08.021Z,4.77
2019-03-26T15:36:35.223Z,4.60
2019-03-26T15:39:02.382Z,8.90
2019-03-26T15:41:30.439Z,9.47
2019-03-26T15:43:57.821Z,3.77
2019-03-26T15:46:24.998Z,4.37
2019-03-26T15:48:52.171Z,4.27
2019-03-26T15:51:19.347Z,9.90
2019-03-26T15:53:46.532Z,5.03
2019-03-26T15:56:13.699Z,8.50
2019-03-26T15:58:40.876Z,3.90
2019-03-26T16:01:08.086Z,9.30
2019-03-26T16:03:35.322Z,6.07
2019-03-26T16:06:02.527Z,3.83
2019-03-26T16:08:29.703Z,5.27
2019-03-26T16:10:56.862Z,9.40
2019-03-26T16:13:24.057Z,9.67
2019-03-26T16:15:51.896Z,4.20
2019-03-26T16:18:19.193Z,7.37
2019-03-26T16:20:46.362Z,5.90
2019-03-26T16:23:13.569Z,5.17
2019-03-26T16:25:40.808Z,5.20
2019-03-26T16:28:07.995Z,4.87
2019-03-26T16:30:35.176Z,3.47
2019-03-26T16:33:02.356Z,5.50
2019-03-26T16:35:29.548Z,4.33
2019-03-26T16:37:56.794Z,7.37
2019-03-26T16:40:23.962Z,4.80
2019-03-26T16:42:51.167Z,9.63
2019-03-26T16:45:18.410Z,5.63
2019-03-26T16:47:45.599Z,6.23
2019-03-26T16:50:12.767Z,7.40
2019-03-26T16:52:39.945Z,7.50
2019-03-26T16:55:07.138Z,7.67
2019-03-26T16:57:34.315Z,10.60
2019-03-26T17:00:01.510Z,10.93
2019-03-26T17:02:28.694Z,10.37
2019-03-26T17:04:55.884Z,6.40
2019-03-26T17:07:23.067Z,8.57
2019-03-26T17:09:50.243Z,6.40
2019-03-26T17:12:17.418Z,6.57
2019-03-26T17:14:44.590Z,6.00
2019-03-26T17:17:11.787Z,5.90
2019-03-26T17:19:38.947Z,14.27
2019-03-26T17:22:06.116Z,3.97
2019-03-26T17:24:33.311Z,2.50
2019-03-26T17:27:00.525Z,4.70
2019-03-26T17:29:27.703Z,8.00
2019-03-26T17:31:54.868Z,7.50
2019-03-26T17:34:22.065Z,7.20
2019-03-26T17:36:49.223Z,6.97
2019-03-26T17:39:16.422Z,5.13
2019-03-26T17:41:43.656Z,2.73
2019-03-26T17:44:10.864Z,11.90
2019-03-26T17:46:38.042Z,12.67
2019-03-26T17:49:05.233Z,6.70
2019-03-26T17:51:32.402Z,5.23
2019-03-26T17:53:59.601Z,6.60
2019-03-26T17:56:26.776Z,5.00
2019-03-26T17:58:53.957Z,6.60
2019-03-26T18:01:21.138Z,7.70
2019-03-26T18:03:48.335Z,6.10
2019-03-26T18:06:15.525Z,9.90
2019-03-26T18:08:42.857Z,6.87
2019-03-26T18:11:10.052Z,9.73
2019-03-26T18:13:37.243Z,6.47
2019-03-26T18:16:04.419Z,9.37
2019-03-26T18:18:31.616Z,8.33
2019-03-26T18:20:58.787Z,9.30
2019-03-26T18:23:25.954Z,4.87
2019-03-26T18:25:53.156Z,6.43
2019-03-26T18:28:20.339Z,5.40
2019-03-26T18:30:47.528Z,9.20
2019-03-26T18:33:14.732Z,7.93
2019-03-26T18:35:41.936Z,6.87
2019-03-26T18:38:09.175Z,8.57
2019-03-26T18:40:36.445Z,6.17
2019-03-26T18:43:03.626Z,10.77
2019-03-26T18:45:30.816Z,5.03
2019-03-26T18:47:57.994Z,5.73
2019-03-26T18:50:25.236Z,5.37
2019-03-26T18:52:52.457Z,4.03
2019-03-26T18:55:19.624Z,8.40
2019-03-26T18:57:46.806Z,2.63
2019-03-26T19:00:15.635Z,7.60
2019-03-26T19:02:42.805Z,8.33
2019-03-26T19:05:09.990Z,13.00
2019-03-26T19:07:39.893Z,7.93
2019-03-26T19:10:08.711Z,8.80
2019-03-26T19:12:35.905Z,10.43
2019-03-26T19:15:04.736Z,7.07
2019-03-26T19:17:31.928Z,5.50
2019-03-26T19:19:59.135Z,8.23
2019-03-26T19:22:27.182Z,6.20
2019-03-26T19:24:54.441Z,9.37
2019-03-26T19:27:21.613Z,9.57
2019-03-26T19:29:48.806Z,6.87
2019-03-26T19:32:26.845Z,9.43
2019-03-26T19:34:53.830Z,7.00
2019-03-26T19:37:21.036Z,7.60
2019-03-26T19:39:48.223Z,4.47
2019-03-26T19:42:18.043Z,6.13
2019-03-26T19:44:45.295Z,10.60
2019-03-26T19:47:12.503Z,10.27
2019-03-26T19:49:39.712Z,8.50
2019-03-26T19:52:06.870Z,8.33
2019-03-26T19:54:34.073Z,6.00
2019-03-26T19:57:01.259Z,4.37
2019-03-26T19:59:28.497Z,11.67
2019-03-26T20:01:55.661Z,8.17
2019-03-26T20:04:22.852Z,8.20
2019-03-26T20:06:50.049Z,5.13
2019-03-26T20:09:17.295Z,8.43
2019-03-26T20:11:44.495Z,8.53
2019-03-26T20:14:11.709Z,8.17
2019-03-26T20:16:42.070Z,4.30
2019-03-26T20:19:09.066Z,7.20
2019-03-26T20:21:38.024Z,6.80
2019-03-26T20:24:08.194Z,10.33
2019-03-26T20:26:37.553Z,6.30
2019-03-26T20:29:09.308Z,7.00
2019-03-26T20:31:42.439Z,6.57
2019-03-26T20:34:11.282Z,7.07
2019-03-26T20:36:38.459Z,15.53
2019-03-26T20:39:06.623Z,10.47
2019-03-26T20:41:42.679Z,8.73
2019-03-26T20:44:09.882Z,8.70
2019-03-26T20:46:37.128Z,9.37
2019-03-26T20:49:04.350Z,9.20
2019-03-26T20:51:31.618Z,11.13
2019-03-26T20:53:58.907Z,9.37
2019-03-26T20:56:26.074Z,6.83
2019-03-26T20:58:53.274Z,7.03
2019-03-26T21:01:20.488Z,10.07
2019-03-26T21:03:47.795Z,7.07
2019-03-26T21:06:18.029Z,7.93
2019-03-26T21:08:45.250Z,8.47
2019-03-26T21:11:12.495Z,8.53
2019-03-26T21:13:50.196Z,8.53
2019-03-26T21:16:11.466Z,12.80
2019-03-26T21:18:40.307Z,10.20
2019-03-26T21:21:07.503Z,16.70
2019-03-26T21:23:40.251Z,9.50
2019-03-26T21:26:07.426Z,9.23
2019-03-26T21:28:36.358Z,18.70
2019-03-26T21:31:06.558Z,16.40
2019-03-26T21:33:33.734Z,23.00
2019-03-26T21:36:04.198Z,21.33
2019-03-26T21:38:31.379Z,19.43
2019-03-26T21:40:58.602Z,22.17
2019-03-26T21:43:25.790Z,29.67
2019-03-26T21:45:53.010Z,27.50
2019-03-26T21:48:20.187Z,28.97
2019-03-26T21:50:50.223Z,31.43
2019-03-26T21:53:17.441Z,36.40
2019-03-26T21:55:44.636Z,30.50
2019-03-26T21:58:11.829Z,33.10
2019-03-26T22:00:39.023Z,29.07
2019-03-26T22:03:06.195Z,24.17
2019-03-26T22:05:33.402Z,23.77
2019-03-26T22:08:00.599Z,23.67
2019-03-26T22:10:27.772Z,16.73
2019-03-26T22:12:54.968Z,28.77
2019-03-26T22:15:22.158Z,11.47
2019-03-26T22:17:49.398Z,12.70
2019-03-26T22:20:16.594Z,13.27
2019-03-26T22:22:43.794Z,14.13
2019-03-26T22:25:11.057Z,13.90
2019-03-26T22:27:38.317Z,14.53
2019-03-26T22:30:07.175Z,10.13
2019-03-26T22:32:34.411Z,15.27
2019-03-26T22:35:01.595Z,9.87
2019-03-26T22:37:28.765Z,6.87
2019-03-26T22:39:55.939Z,6.00
2019-03-26T22:42:23.116Z,11.20
2019-03-26T22:44:50.300Z,6.90
2019-03-26T22:47:17.484Z,8.37
2019-03-26T22:49:44.671Z,7.43
2019-03-26T22:52:12.205Z,9.00
2019-03-26T22:54:39.365Z,8.07
2019-03-26T22:57:06.559Z,6.00
2019-03-26T22:59:33.750Z,13.23
2019-03-26T23:02:00.931Z,11.23
2019-03-26T23:04:28.102Z,6.93
2019-03-26T23:06:55.287Z,4.40
2019-03-26T23:09:22.471Z,7.07
2019-03-26T23:11:49.648Z,10.47
2019-03-26T23:14:18.802Z,10.50
2019-03-26T23:16:45.984Z,11.97
2019-03-26T23:19:13.161Z,7.47
2019-03-26T23:21:40.369Z,10.03
2019-03-26T23:24:07.632Z,11.83
2019-03-26T23:26:34.842Z,10.27
2019-03-26T23:29:02.066Z,11.27
2019-03-26T23:31:29.236Z,7.23
2019-03-26T23:33:59.129Z,12.17
2019-03-26T23:36:26.318Z,12.00
2019-03-26T23:38:57.738Z,6.73
2019-03-26T23:41:26.625Z,4.57
2019-03-26T23:43:53.781Z,7.07
2019-03-26T23:46:21.150Z,5.43
2019-03-26T23:48:48.418Z,8.00
2019-03-26T23:51:15.650Z,8.07
2019-03-26T23:53:42.832Z,5.47
2019-03-26T23:56:10.014Z,6.87
2019-03-26T23:58:37.250Z,9.33
